sensor_id;sensor_type;location;lat;lon;timestamp;P1;durP1;ratioP1;P2;durP2;ratioP2
67174;SDS011;54110;45.778;4.826;2022-09-19T00:00:13;1.20;;;0.98;;
67174;SDS011;54110;45.778;4.826;2022-09-19T00:02:39;3.05;;;1.10;;
67174;SDS011;54110;45.778;4.826;2022-09-19T00:05:05;4.43;;;1.52;;
67174;SDS011;54110;45.778;4.826;2022-09-19T00:07:32;2.70;;;1.20;;
67174;SDS011;54110;45.778;4.826;2022-09-19T00:09:58;3.28;;;1.00;;
67174;SDS011;54110;45.778;4.826;2022-09-19T00:12:24;3.75;;;1.33;;
67174;SDS011;54110;45.778;4.826;2022-09-19T00:14:49;1.33;;;0.70;;
67174;SDS011;54110;45.778;4.826;2022-09-19T00:17:15;4.70;;;1.10;;
67174;SDS011;54110;45.778;4.826;2022-09-19T00:19:41;2.53;;;0.85;;
67174;SDS011;54110;45.778;4.826;2022-09-19T00:22:06;2.25;;;1.00;;
67174;SDS011;54110;45.778;4.826;2022-09-19T00:24:33;3.10;;;1.05;;
67174;SDS011;54110;45.778;4.826;2022-09-19T00:26:59;2.80;;;1.08;;
67174;SDS011;54110;45.778;4.826;2022-09-19T00:29:25;1.95;;;1.00;;
67174;SDS011;54110;45.778;4.826;2022-09-19T00:31:51;5.60;;;1.20;;
67174;SDS011;54110;45.778;4.826;2022-09-19T00:34:17;2.47;;;1.05;;
67174;SDS011;54110;45.778;4.826;2022-09-19T00:36:43;3.97;;;1.20;;
67174;SDS011;54110;45.778;4.826;2022-09-19T00:39:10;1.10;;;0.60;;
67174;SDS011;54110;45.778;4.826;2022-09-19T00:41:39;1.88;;;0.93;;
67174;SDS011;54110;45.778;4.826;2022-09-19T00:44:45;3.88;;;0.90;;
67174;SDS011;54110;45.778;4.826;2022-09-19T00:47:11;2.53;;;1.30;;
67174;SDS011;54110;45.778;4.826;2022-09-19T00:49:39;1.42;;;0.90;;
67174;SDS011;54110;45.778;4.826;2022-09-19T00:52:10;9.70;;;1.20;;
67174;SDS011;54110;45.778;4.826;2022-09-19T00:54:40;1.85;;;0.95;;
67174;SDS011;54110;45.778;4.826;2022-09-19T00:57:11;7.72;;;1.10;;
67174;SDS011;54110;45.778;4.826;2022-09-19T00:59:39;2.63;;;0.93;;
67174;SDS011;54110;45.778;4.826;2022-09-19T01:02:07;3.30;;;1.20;;
67174;SDS011;54110;45.778;4.826;2022-09-19T01:04:34;1.65;;;0.80;;
67174;SDS011;54110;45.778;4.826;2022-09-19T01:07:01;7.18;;;1.10;;
67174;SDS011;54110;45.778;4.826;2022-09-19T01:09:38;3.22;;;0.95;;
67174;SDS011;54110;45.778;4.826;2022-09-19T01:15:08;6.70;;;1.30;;
67174;SDS011;54110;45.778;4.826;2022-09-19T01:17:44;9.85;;;1.30;;
67174;SDS011;54110;45.778;4.826;2022-09-19T01:20:19;3.22;;;1.00;;
67174;SDS011;54110;45.778;4.826;2022-09-19T01:23:08;5.20;;;1.20;;
67174;SDS011;54110;45.778;4.826;2022-09-19T01:25:49;5.65;;;1.10;;
67174;SDS011;54110;45.778;4.826;2022-09-19T01:28:28;2.00;;;0.95;;
67174;SDS011;54110;45.778;4.826;2022-09-19T01:30:58;6.82;;;1.33;;
67174;SDS011;54110;45.778;4.826;2022-09-19T01:33:27;1.35;;;0.80;;
67174;SDS011;54110;45.778;4.826;2022-09-19T01:35:53;3.70;;;1.15;;
67174;SDS011;54110;45.778;4.826;2022-09-19T01:38:20;14.55;;;1.10;;
67174;SDS011;54110;45.778;4.826;2022-09-19T01:40:48;3.83;;;1.23;;
67174;SDS011;54110;45.778;4.826;2022-09-19T01:43:16;8.35;;;1.60;;
67174;SDS011;54110;45.778;4.826;2022-09-19T01:45:43;3.25;;;1.10;;
67174;SDS011;54110;45.778;4.826;2022-09-19T01:48:12;5.65;;;1.40;;
67174;SDS011;54110;45.778;4.826;2022-09-19T01:50:48;7.38;;;1.20;;
67174;SDS011;54110;45.778;4.826;2022-09-19T01:53:33;3.60;;;1.10;;
67174;SDS011;54110;45.778;4.826;2022-09-19T01:56:08;3.70;;;1.10;;
67174;SDS011;54110;45.778;4.826;2022-09-19T01:58:38;3.80;;;1.00;;
67174;SDS011;54110;45.778;4.826;2022-09-19T02:01:10;3.08;;;1.20;;
67174;SDS011;54110;45.778;4.826;2022-09-19T02:03:44;5.07;;;0.90;;
67174;SDS011;54110;45.778;4.826;2022-09-19T02:06:14;6.45;;;0.90;;
67174;SDS011;54110;45.778;4.826;2022-09-19T02:08:47;3.42;;;1.13;;
67174;SDS011;54110;45.778;4.826;2022-09-19T02:11:17;4.32;;;0.80;;
67174;SDS011;54110;45.778;4.826;2022-09-19T02:13:45;1.73;;;0.90;;
67174;SDS011;54110;45.778;4.826;2022-09-19T02:16:17;2.95;;;1.10;;
67174;SDS011;54110;45.778;4.826;2022-09-19T02:18:48;2.38;;;0.88;;
67174;SDS011;54110;45.778;4.826;2022-09-19T02:21:18;1.95;;;1.00;;
67174;SDS011;54110;45.778;4.826;2022-09-19T02:23:49;10.40;;;1.08;;
67174;SDS011;54110;45.778;4.826;2022-09-19T02:26:20;2.30;;;0.95;;
67174;SDS011;54110;45.778;4.826;2022-09-19T02:28:47;2.78;;;1.00;;
67174;SDS011;54110;45.778;4.826;2022-09-19T02:31:22;1.33;;;1.10;;
67174;SDS011;54110;45.778;4.826;2022-09-19T02:33:48;3.17;;;1.20;;
67174;SDS011;54110;45.778;4.826;2022-09-19T02:36:15;3.33;;;0.95;;
67174;SDS011;54110;45.778;4.826;2022-09-19T02:38:48;4.00;;;0.82;;
67174;SDS011;54110;45.778;4.826;2022-09-19T02:41:21;3.78;;;1.05;;
67174;SDS011;54110;45.778;4.826;2022-09-19T02:43:54;3.90;;;1.27;;
67174;SDS011;54110;45.778;4.826;2022-09-19T02:46:26;2.50;;;0.93;;
67174;SDS011;54110;45.778;4.826;2022-09-19T02:49:00;2.53;;;1.05;;
67174;SDS011;54110;45.778;4.826;2022-09-19T02:51:34;1.63;;;0.90;;
67174;SDS011;54110;45.778;4.826;2022-09-19T02:54:04;3.80;;;1.02;;
67174;SDS011;54110;45.778;4.826;2022-09-19T02:56:33;3.15;;;1.20;;
67174;SDS011;54110;45.778;4.826;2022-09-19T02:59:02;4.68;;;0.90;;
67174;SDS011;54110;45.778;4.826;2022-09-19T03:01:31;4.90;;;1.23;;
67174;SDS011;54110;45.778;4.826;2022-09-19T03:04:00;1.67;;;0.90;;
67174;SDS011;54110;45.778;4.826;2022-09-19T03:06:31;2.80;;;0.90;;
67174;SDS011;54110;45.778;4.826;2022-09-19T03:08:58;2.22;;;0.90;;
67174;SDS011;54110;45.778;4.826;2022-09-19T03:11:27;2.25;;;0.70;;
67174;SDS011;54110;45.778;4.826;2022-09-19T03:13:54;1.50;;;0.90;;
67174;SDS011;54110;45.778;4.826;2022-09-19T03:16:21;3.60;;;0.82;;
67174;SDS011;54110;45.778;4.826;2022-09-19T03:18:52;18.38;;;2.53;;
67174;SDS011;54110;45.778;4.826;2022-09-19T03:21:20;2.80;;;1.15;;
67174;SDS011;54110;45.778;4.826;2022-09-19T03:23:48;3.08;;;0.73;;
67174;SDS011;54110;45.778;4.826;2022-09-19T03:26:17;5.07;;;1.08;;
67174;SDS011;54110;45.778;4.826;2022-09-19T03:28:43;1.85;;;1.00;;
67174;SDS011;54110;45.778;4.826;2022-09-19T03:31:09;2.33;;;1.30;;
67174;SDS011;54110;45.778;4.826;2022-09-19T03:33:35;1.60;;;0.60;;
67174;SDS011;54110;45.778;4.826;2022-09-19T03:36:02;3.00;;;0.90;;
67174;SDS011;54110;45.778;4.826;2022-09-19T03:38:28;4.72;;;1.25;;
67174;SDS011;54110;45.778;4.826;2022-09-19T03:40:54;11.18;;;1.02;;
67174;SDS011;54110;45.778;4.826;2022-09-19T03:43:20;8.82;;;1.27;;
67174;SDS011;54110;45.778;4.826;2022-09-19T03:45:45;2.80;;;1.10;;
67174;SDS011;54110;45.778;4.826;2022-09-19T03:48:11;6.30;;;0.90;;
67174;SDS011;54110;45.778;4.826;2022-09-19T03:50:37;1.95;;;1.00;;
67174;SDS011;54110;45.778;4.826;2022-09-19T03:53:04;5.25;;;0.75;;
67174;SDS011;54110;45.778;4.826;2022-09-19T03:55:30;3.95;;;1.05;;
67174;SDS011;54110;45.778;4.826;2022-09-19T03:57:55;2.75;;;0.93;;
67174;SDS011;54110;45.778;4.826;2022-09-19T04:00:21;2.70;;;0.80;;
67174;SDS011;54110;45.778;4.826;2022-09-19T04:02:47;4.53;;;0.98;;
67174;SDS011;54110;45.778;4.826;2022-09-19T04:05:13;3.10;;;1.00;;
67174;SDS011;54110;45.778;4.826;2022-09-19T04:07:38;2.80;;;0.90;;
67174;SDS011;54110;45.778;4.826;2022-09-19T04:10:06;7.15;;;1.17;;
67174;SDS011;54110;45.778;4.826;2022-09-19T04:12:32;9.48;;;1.13;;
67174;SDS011;54110;45.778;4.826;2022-09-19T04:14:58;7.93;;;0.95;;
67174;SDS011;54110;45.778;4.826;2022-09-19T04:17:24;1.00;;;0.50;;
67174;SDS011;54110;45.778;4.826;2022-09-19T04:19:49;9.18;;;0.93;;
67174;SDS011;54110;45.778;4.826;2022-09-19T04:22:15;5.47;;;1.40;;
67174;SDS011;54110;45.778;4.826;2022-09-19T04:24:41;6.90;;;0.85;;
67174;SDS011;54110;45.778;4.826;2022-09-19T04:27:08;9.95;;;1.15;;
67174;SDS011;54110;45.778;4.826;2022-09-19T04:29:34;11.30;;;1.30;;
67174;SDS011;54110;45.778;4.826;2022-09-19T04:32:00;3.60;;;1.25;;
67174;SDS011;54110;45.778;4.826;2022-09-19T04:34:25;4.60;;;1.15;;
67174;SDS011;54110;45.778;4.826;2022-09-19T04:36:51;6.20;;;0.85;;
67174;SDS011;54110;45.778;4.826;2022-09-19T04:39:17;4.75;;;0.98;;
67174;SDS011;54110;45.778;4.826;2022-09-19T04:41:43;5.25;;;0.98;;
67174;SDS011;54110;45.778;4.826;2022-09-19T04:44:10;2.92;;;0.90;;
67174;SDS011;54110;45.778;4.826;2022-09-19T04:46:36;6.65;;;0.70;;
67174;SDS011;54110;45.778;4.826;2022-09-19T04:49:02;2.42;;;0.75;;
67174;SDS011;54110;45.778;4.826;2022-09-19T04:51:27;2.30;;;0.68;;
67174;SDS011;54110;45.778;4.826;2022-09-19T04:53:53;2.15;;;0.77;;
67174;SDS011;54110;45.778;4.826;2022-09-19T04:56:19;1.52;;;0.70;;
67174;SDS011;54110;45.778;4.826;2022-09-19T04:58:44;1.80;;;0.82;;
67174;SDS011;54110;45.778;4.826;2022-09-19T05:01:12;3.03;;;0.90;;
67174;SDS011;54110;45.778;4.826;2022-09-19T05:03:38;3.63;;;0.80;;
67174;SDS011;54110;45.778;4.826;2022-09-19T05:06:04;1.45;;;0.88;;
67174;SDS011;54110;45.778;4.826;2022-09-19T05:08:30;3.45;;;1.05;;
67174;SDS011;54110;45.778;4.826;2022-09-19T05:10:58;5.47;;;0.60;;
67174;SDS011;54110;45.778;4.826;2022-09-19T05:13:26;3.97;;;0.90;;
67174;SDS011;54110;45.778;4.826;2022-09-19T05:15:53;22.20;;;1.67;;
67174;SDS011;54110;45.778;4.826;2022-09-19T05:18:21;5.20;;;1.20;;
67174;SDS011;54110;45.778;4.826;2022-09-19T05:20:47;14.93;;;1.40;;
67174;SDS011;54110;45.778;4.826;2022-09-19T05:23:14;6.47;;;1.17;;
67174;SDS011;54110;45.778;4.826;2022-09-19T05:25:39;8.77;;;0.95;;
67174;SDS011;54110;45.778;4.826;2022-09-19T05:28:06;10.57;;;1.85;;
67174;SDS011;54110;45.778;4.826;2022-09-19T05:30:33;22.88;;;2.17;;
67174;SDS011;54110;45.778;4.826;2022-09-19T05:33:00;36.35;;;2.67;;
67174;SDS011;54110;45.778;4.826;2022-09-19T05:35:28;32.67;;;2.15;;
67174;SDS011;54110;45.778;4.826;2022-09-19T05:37:54;31.10;;;2.10;;
67174;SDS011;54110;45.778;4.826;2022-09-19T05:40:19;20.25;;;1.63;;
67174;SDS011;54110;45.778;4.826;2022-09-19T05:42:45;17.85;;;1.40;;
67174;SDS011;54110;45.778;4.826;2022-09-19T05:45:11;11.75;;;1.55;;
67174;SDS011;54110;45.778;4.826;2022-09-19T05:47:37;9.55;;;1.60;;
67174;SDS011;54110;45.778;4.826;2022-09-19T05:50:03;17.02;;;1.83;;
67174;SDS011;54110;45.778;4.826;2022-09-19T05:52:31;30.75;;;2.28;;
67174;SDS011;54110;45.778;4.826;2022-09-19T05:54:57;10.95;;;1.17;;
67174;SDS011;54110;45.778;4.826;2022-09-19T05:57:22;9.38;;;1.95;;
67174;SDS011;54110;45.778;4.826;2022-09-19T05:59:48;4.60;;;1.17;;
67174;SDS011;54110;45.778;4.826;2022-09-19T06:02:14;12.68;;;1.75;;
67174;SDS011;54110;45.778;4.826;2022-09-19T06:04:39;5.30;;;1.30;;
67174;SDS011;54110;45.778;4.826;2022-09-19T06:07:05;12.25;;;1.65;;
67174;SDS011;54110;45.778;4.826;2022-09-19T06:09:32;7.05;;;1.35;;
67174;SDS011;54110;45.778;4.826;2022-09-19T06:11:58;19.52;;;2.05;;
67174;SDS011;54110;45.778;4.826;2022-09-19T06:14:24;8.40;;;1.30;;
67174;SDS011;54110;45.778;4.826;2022-09-19T06:16:49;19.20;;;2.75;;
67174;SDS011;54110;45.778;4.826;2022-09-19T06:19:15;9.13;;;1.85;;
67174;SDS011;54110;45.778;4.826;2022-09-19T06:21:41;11.75;;;1.67;;
67174;SDS011;54110;45.778;4.826;2022-09-19T06:24:07;10.50;;;1.55;;
67174;SDS011;54110;45.778;4.826;2022-09-19T06:26:34;20.17;;;2.78;;
67174;SDS011;54110;45.778;4.826;2022-09-19T06:29:00;7.40;;;1.42;;
67174;SDS011;54110;45.778;4.826;2022-09-19T06:31:25;12.15;;;1.55;;
67174;SDS011;54110;45.778;4.826;2022-09-19T06:33:51;10.88;;;1.60;;
67174;SDS011;54110;45.778;4.826;2022-09-19T06:36:17;3.90;;;1.50;;
67174;SDS011;54110;45.778;4.826;2022-09-19T06:38:42;10.68;;;1.48;;
67174;SDS011;54110;45.778;4.826;2022-09-19T06:41:08;11.07;;;1.50;;
67174;SDS011;54110;45.778;4.826;2022-09-19T06:43:35;7.00;;;1.48;;
67174;SDS011;54110;45.778;4.826;2022-09-19T06:46:01;6.80;;;1.15;;
67174;SDS011;54110;45.778;4.826;2022-09-19T06:48:28;6.38;;;1.52;;
67174;SDS011;54110;45.778;4.826;2022-09-19T06:50:53;12.13;;;1.70;;
67174;SDS011;54110;45.778;4.826;2022-09-19T06:53:19;16.13;;;1.60;;
67174;SDS011;54110;45.778;4.826;2022-09-19T06:55:45;8.82;;;1.35;;
67174;SDS011;54110;45.778;4.826;2022-09-19T06:58:11;7.90;;;1.15;;
67174;SDS011;54110;45.778;4.826;2022-09-19T07:00:38;5.47;;;1.38;;
67174;SDS011;54110;45.778;4.826;2022-09-19T07:03:05;7.55;;;1.65;;
67174;SDS011;54110;45.778;4.826;2022-09-19T07:05:32;6.72;;;1.50;;
67174;SDS011;54110;45.778;4.826;2022-09-19T07:07:59;10.88;;;1.50;;
67174;SDS011;54110;45.778;4.826;2022-09-19T07:10:26;14.07;;;1.40;;
67174;SDS011;54110;45.778;4.826;2022-09-19T07:12:52;8.07;;;1.35;;
67174;SDS011;54110;45.778;4.826;2022-09-19T07:15:18;9.73;;;1.50;;
67174;SDS011;54110;45.778;4.826;2022-09-19T07:17:45;13.50;;;1.20;;
67174;SDS011;54110;45.778;4.826;2022-09-19T07:20:11;8.57;;;1.30;;
67174;SDS011;54110;45.778;4.826;2022-09-19T07:22:37;9.55;;;1.50;;
67174;SDS011;54110;45.778;4.826;2022-09-19T07:25:03;7.63;;;1.27;;
67174;SDS011;54110;45.778;4.826;2022-09-19T07:27:29;3.83;;;1.48;;
67174;SDS011;54110;45.778;4.826;2022-09-19T07:29:55;7.25;;;1.30;;
67174;SDS011;54110;45.778;4.826;2022-09-19T07:32:20;8.38;;;1.45;;
67174;SDS011;54110;45.778;4.826;2022-09-19T07:34:48;5.65;;;1.42;;
67174;SDS011;54110;45.778;4.826;2022-09-19T07:37:13;6.25;;;1.08;;
67174;SDS011;54110;45.778;4.826;2022-09-19T07:39:39;4.18;;;1.15;;
67174;SDS011;54110;45.778;4.826;2022-09-19T07:42:05;4.90;;;1.58;;
67174;SDS011;54110;45.778;4.826;2022-09-19T07:44:30;7.00;;;1.20;;
67174;SDS011;54110;45.778;4.826;2022-09-19T07:46:56;8.45;;;1.35;;
67174;SDS011;54110;45.778;4.826;2022-09-19T07:49:22;5.32;;;1.20;;
67174;SDS011;54110;45.778;4.826;2022-09-19T07:51:51;7.68;;;1.40;;
67174;SDS011;54110;45.778;4.826;2022-09-19T07:54:17;4.70;;;1.15;;
67174;SDS011;54110;45.778;4.826;2022-09-19T07:56:43;3.88;;;1.20;;
67174;SDS011;54110;45.778;4.826;2022-09-19T07:59:08;3.28;;;1.00;;
67174;SDS011;54110;45.778;4.826;2022-09-19T08:01:34;6.03;;;1.08;;
67174;SDS011;54110;45.778;4.826;2022-09-19T08:04:00;2.17;;;0.80;;
67174;SDS011;54110;45.778;4.826;2022-09-19T08:06:26;5.82;;;1.02;;
67174;SDS011;54110;45.778;4.826;2022-09-19T08:08:53;4.60;;;1.15;;
67174;SDS011;54110;45.778;4.826;2022-09-19T08:11:19;4.30;;;1.13;;
67174;SDS011;54110;45.778;4.826;2022-09-19T08:13:45;2.25;;;1.00;;
67174;SDS011;54110;45.778;4.826;2022-09-19T08:16:10;5.97;;;1.10;;
67174;SDS011;54110;45.778;4.826;2022-09-19T08:18:36;5.05;;;0.73;;
67174;SDS011;54110;45.778;4.826;2022-09-19T08:21:02;3.20;;;0.73;;
67174;SDS011;54110;45.778;4.826;2022-09-19T08:23:27;2.25;;;1.00;;
67174;SDS011;54110;45.778;4.826;2022-09-19T08:25:54;4.57;;;1.02;;
67174;SDS011;54110;45.778;4.826;2022-09-19T08:28:20;4.35;;;1.02;;
67174;SDS011;54110;45.778;4.826;2022-09-19T08:30:46;6.35;;;1.20;;
67174;SDS011;54110;45.778;4.826;2022-09-19T08:33:13;4.78;;;1.10;;
67174;SDS011;54110;45.778;4.826;2022-09-19T08:35:39;5.13;;;1.25;;
67174;SDS011;54110;45.778;4.826;2022-09-19T08:38:06;2.05;;;1.00;;
67174;SDS011;54110;45.778;4.826;2022-09-19T08:40:33;3.78;;;0.90;;
67174;SDS011;54110;45.778;4.826;2022-09-19T08:43:09;2.17;;;0.70;;
67174;SDS011;54110;45.778;4.826;2022-09-19T08:45:41;2.80;;;0.90;;
67174;SDS011;54110;45.778;4.826;2022-09-19T08:48:24;3.45;;;1.05;;
67174;SDS011;54110;45.778;4.826;2022-09-19T08:50:54;3.47;;;0.90;;
67174;SDS011;54110;45.778;4.826;2022-09-19T08:53:23;3.20;;;0.82;;
67174;SDS011;54110;45.778;4.826;2022-09-19T08:55:54;4.72;;;0.68;;
67174;SDS011;54110;45.778;4.826;2022-09-19T08:58:23;2.80;;;0.77;;
67174;SDS011;54110;45.778;4.826;2022-09-19T09:00:50;2.08;;;0.90;;
67174;SDS011;54110;45.778;4.826;2022-09-19T09:03:17;1.75;;;0.80;;
67174;SDS011;54110;45.778;4.826;2022-09-19T09:05:50;5.63;;;0.90;;
67174;SDS011;54110;45.778;4.826;2022-09-19T09:08:25;3.55;;;1.05;;
67174;SDS011;54110;45.778;4.826;2022-09-19T09:10:59;5.80;;;1.00;;
67174;SDS011;54110;45.778;4.826;2022-09-19T09:13:36;1.75;;;0.90;;
67174;SDS011;54110;45.778;4.826;2022-09-19T09:16:11;2.08;;;1.00;;
67174;SDS011;54110;45.778;4.826;2022-09-19T09:18:47;1.10;;;0.70;;
67174;SDS011;54110;45.778;4.826;2022-09-19T09:21:26;3.38;;;0.80;;
67174;SDS011;54110;45.778;4.826;2022-09-19T09:23:57;4.25;;;0.77;;
67174;SDS011;54110;45.778;4.826;2022-09-19T09:26:28;2.47;;;0.80;;
67174;SDS011;54110;45.778;4.826;2022-09-19T09:28:58;4.05;;;0.95;;
67174;SDS011;54110;45.778;4.826;2022-09-19T09:31:31;3.63;;;1.10;;
67174;SDS011;54110;45.778;4.826;2022-09-19T09:34:01;2.95;;;0.77;;
67174;SDS011;54110;45.778;4.826;2022-09-19T09:36:31;1.45;;;0.77;;
67174;SDS011;54110;45.778;4.826;2022-09-19T09:39:02;3.92;;;1.10;;
67174;SDS011;54110;45.778;4.826;2022-09-19T09:41:37;3.67;;;0.93;;
67174;SDS011;54110;45.778;4.826;2022-09-19T09:44:12;3.45;;;0.50;;
67174;SDS011;54110;45.778;4.826;2022-09-19T09:46:52;2.42;;;0.88;;
67174;SDS011;54110;45.778;4.826;2022-09-19T09:49:24;7.93;;;1.10;;
67174;SDS011;54110;45.778;4.826;2022-09-19T09:51:53;1.42;;;0.73;;
67174;SDS011;54110;45.778;4.826;2022-09-19T09:54:33;1.67;;;0.88;;
67174;SDS011;54110;45.778;4.826;2022-09-19T09:57:09;1.60;;;0.80;;
67174;SDS011;54110;45.778;4.826;2022-09-19T09:59:44;3.50;;;0.88;;
67174;SDS011;54110;45.778;4.826;2022-09-19T10:04:46;1.48;;;0.80;;
67174;SDS011;54110;45.778;4.826;2022-09-19T10:07:17;1.83;;;0.70;;
67174;SDS011;54110;45.778;4.826;2022-09-19T10:09:51;2.80;;;0.90;;
67174;SDS011;54110;45.778;4.826;2022-09-19T10:12:22;5.30;;;0.80;;
67174;SDS011;54110;45.778;4.826;2022-09-19T10:14:51;1.52;;;0.50;;
67174;SDS011;54110;45.778;4.826;2022-09-19T10:17:19;1.85;;;0.90;;
67174;SDS011;54110;45.778;4.826;2022-09-19T10:19:47;1.95;;;0.77;;
67174;SDS011;54110;45.778;4.826;2022-09-19T10:22:16;2.13;;;0.80;;
67174;SDS011;54110;45.778;4.826;2022-09-19T10:24:43;2.45;;;0.88;;
67174;SDS011;54110;45.778;4.826;2022-09-19T10:27:13;1.95;;;0.90;;
67174;SDS011;54110;45.778;4.826;2022-09-19T10:29:47;3.90;;;1.20;;
67174;SDS011;54110;45.778;4.826;2022-09-19T10:32:16;1.73;;;0.68;;
67174;SDS011;54110;45.778;4.826;2022-09-19T10:34:42;2.13;;;0.50;;
67174;SDS011;54110;45.778;4.826;2022-09-19T10:37:09;0.57;;;0.57;;
67174;SDS011;54110;45.778;4.826;2022-09-19T10:39:40;1.55;;;0.45;;
67174;SDS011;54110;45.778;4.826;2022-09-19T10:42:17;1.85;;;0.77;;
67174;SDS011;54110;45.778;4.826;2022-09-19T10:44:52;1.75;;;0.60;;
67174;SDS011;54110;45.778;4.826;2022-09-19T10:47:20;2.22;;;0.70;;
67174;SDS011;54110;45.778;4.826;2022-09-19T10:49:46;3.03;;;0.88;;
67174;SDS011;54110;45.778;4.826;2022-09-19T10:52:18;4.25;;;0.90;;
67174;SDS011;54110;45.778;4.826;2022-09-19T10:54:46;1.10;;;0.65;;
67174;SDS011;54110;45.778;4.826;2022-09-19T10:57:27;2.42;;;1.05;;
67174;SDS011;54110;45.778;4.826;2022-09-19T10:59:59;1.98;;;0.60;;
67174;SDS011;54110;45.778;4.826;2022-09-19T11:02:27;0.65;;;0.50;;
67174;SDS011;54110;45.778;4.826;2022-09-19T11:04:53;0.73;;;0.52;;
67174;SDS011;54110;45.778;4.826;2022-09-19T11:07:22;1.50;;;0.70;;
67174;SDS011;54110;45.778;4.826;2022-09-19T11:09:48;2.75;;;0.80;;
67174;SDS011;54110;45.778;4.826;2022-09-19T11:12:15;2.22;;;0.70;;
67174;SDS011;54110;45.778;4.826;2022-09-19T11:14:41;1.60;;;0.88;;
67174;SDS011;54110;45.778;4.826;2022-09-19T11:17:15;1.52;;;0.60;;
67174;SDS011;54110;45.778;4.826;2022-09-19T11:19:56;4.75;;;0.93;;
67174;SDS011;54110;45.778;4.826;2022-09-19T11:22:56;1.73;;;0.88;;
67174;SDS011;54110;45.778;4.826;2022-09-19T11:25:37;3.22;;;0.70;;
67174;SDS011;54110;45.778;4.826;2022-09-19T11:28:14;1.15;;;0.70;;
67174;SDS011;54110;45.778;4.826;2022-09-19T11:30:46;1.20;;;0.68;;
67174;SDS011;54110;45.778;4.826;2022-09-19T11:33:29;2.40;;;0.77;;
67174;SDS011;54110;45.778;4.826;2022-09-19T11:36:06;1.58;;;0.77;;
67174;SDS011;54110;45.778;4.826;2022-09-19T11:38:39;1.95;;;0.73;;
67174;SDS011;54110;45.778;4.826;2022-09-19T11:41:24;2.35;;;0.43;;
67174;SDS011;54110;45.778;4.826;2022-09-19T11:44:02;1.23;;;0.50;;
67174;SDS011;54110;45.778;4.826;2022-09-19T11:46:42;1.55;;;0.73;;
67174;SDS011;54110;45.778;4.826;2022-09-19T11:49:36;1.08;;;0.63;;
67174;SDS011;54110;45.778;4.826;2022-09-19T11:52:14;6.53;;;1.05;;
67174;SDS011;54110;45.778;4.826;2022-09-19T11:54:51;1.83;;;0.68;;
67174;SDS011;54110;45.778;4.826;2022-09-19T11:57:30;2.17;;;0.50;;
67174;SDS011;54110;45.778;4.826;2022-09-19T12:00:06;1.25;;;0.43;;
67174;SDS011;54110;45.778;4.826;2022-09-19T12:02:47;0.82;;;0.60;;
67174;SDS011;54110;45.778;4.826;2022-09-19T12:05:28;3.42;;;0.60;;
67174;SDS011;54110;45.778;4.826;2022-09-19T12:08:14;1.13;;;0.68;;
67174;SDS011;54110;45.778;4.826;2022-09-19T12:10:52;1.10;;;0.77;;
67174;SDS011;54110;45.778;4.826;2022-09-19T12:13:23;2.40;;;0.70;;
67174;SDS011;54110;45.778;4.826;2022-09-19T12:15:53;1.30;;;0.60;;
67174;SDS011;54110;45.778;4.826;2022-09-19T12:18:24;0.50;;;0.40;;
67174;SDS011;54110;45.778;4.826;2022-09-19T12:20:57;1.27;;;0.65;;
67174;SDS011;54110;45.778;4.826;2022-09-19T12:23:26;1.27;;;0.50;;
67174;SDS011;54110;45.778;4.826;2022-09-19T12:25:54;2.50;;;0.85;;
67174;SDS011;54110;45.778;4.826;2022-09-19T12:28:23;1.48;;;0.73;;
67174;SDS011;54110;45.778;4.826;2022-09-19T12:30:54;0.98;;;0.57;;
67174;SDS011;54110;45.778;4.826;2022-09-19T12:33:24;2.08;;;1.00;;
67174;SDS011;54110;45.778;4.826;2022-09-19T12:35:54;0.73;;;0.57;;
67174;SDS011;54110;45.778;4.826;2022-09-19T12:38:27;1.85;;;0.60;;
67174;SDS011;54110;45.778;4.826;2022-09-19T12:41:02;0.60;;;0.55;;
67174;SDS011;54110;45.778;4.826;2022-09-19T12:43:36;1.95;;;0.65;;
67174;SDS011;54110;45.778;4.826;2022-09-19T12:46:13;2.75;;;0.63;;
67174;SDS011;54110;45.778;4.826;2022-09-19T12:48:49;1.13;;;0.60;;
67174;SDS011;54110;45.778;4.826;2022-09-19T12:51:20;1.17;;;0.70;;
67174;SDS011;54110;45.778;4.826;2022-09-19T12:53:56;1.98;;;0.77;;
67174;SDS011;54110;45.778;4.826;2022-09-19T12:56:28;1.02;;;0.60;;
67174;SDS011;54110;45.778;4.826;2022-09-19T12:58:59;1.17;;;0.50;;
67174;SDS011;54110;45.778;4.826;2022-09-19T13:01:33;2.45;;;0.68;;
67174;SDS011;54110;45.778;4.826;2022-09-19T13:04:07;0.70;;;0.50;;
67174;SDS011;54110;45.778;4.826;2022-09-19T13:06:40;1.15;;;0.60;;
67174;SDS011;54110;45.778;4.826;2022-09-19T13:09:09;1.17;;;0.50;;
67174;SDS011;54110;45.778;4.826;2022-09-19T13:11:43;2.05;;;0.60;;
67174;SDS011;54110;45.778;4.826;2022-09-19T13:14:13;2.17;;;0.80;;
67174;SDS011;54110;45.778;4.826;2022-09-19T13:16:42;1.13;;;0.60;;
67174;SDS011;54110;45.778;4.826;2022-09-19T13:19:09;0.80;;;0.50;;
67174;SDS011;54110;45.778;4.826;2022-09-19T13:21:36;1.85;;;0.80;;
67174;SDS011;54110;45.778;4.826;2022-09-19T13:24:04;1.35;;;0.70;;
67174;SDS011;54110;45.778;4.826;2022-09-19T13:26:33;1.52;;;0.55;;
67174;SDS011;54110;45.778;4.826;2022-09-19T13:29:00;0.63;;;0.50;;
67174;SDS011;54110;45.778;4.826;2022-09-19T13:31:31;1.85;;;0.60;;
67174;SDS011;54110;45.778;4.826;2022-09-19T13:33:58;2.05;;;0.73;;
67174;SDS011;54110;45.778;4.826;2022-09-19T13:36:37;1.80;;;0.43;;
67174;SDS011;54110;45.778;4.826;2022-09-19T13:39:10;1.05;;;0.70;;
67174;SDS011;54110;45.778;4.826;2022-09-19T13:42:20;1.02;;;0.60;;
67174;SDS011;54110;45.778;4.826;2022-09-19T13:44:58;0.93;;;0.70;;
67174;SDS011;54110;45.778;4.826;2022-09-19T13:47:31;0.93;;;0.50;;
67174;SDS011;54110;45.778;4.826;2022-09-19T13:50:05;0.40;;;0.40;;
67174;SDS011;54110;45.778;4.826;2022-09-19T13:52:42;0.70;;;0.50;;
67174;SDS011;54110;45.778;4.826;2022-09-19T13:55:15;0.98;;;0.50;;
67174;SDS011;54110;45.778;4.826;2022-09-19T13:57:44;1.58;;;0.63;;
67174;SDS011;54110;45.778;4.826;2022-09-19T14:00:24;1.35;;;0.70;;
67174;SDS011;54110;45.778;4.826;2022-09-19T14:02:58;1.02;;;0.50;;
67174;SDS011;54110;45.778;4.826;2022-09-19T14:05:25;0.73;;;0.63;;
67174;SDS011;54110;45.778;4.826;2022-09-19T14:07:53;2.03;;;0.50;;
67174;SDS011;54110;45.778;4.826;2022-09-19T14:10:22;0.80;;;0.40;;
67174;SDS011;54110;45.778;4.826;2022-09-19T14:12:56;0.63;;;0.50;;
67174;SDS011;54110;45.778;4.826;2022-09-19T14:15:28;0.52;;;0.50;;
67174;SDS011;54110;45.778;4.826;2022-09-19T14:18:21;0.88;;;0.40;;
67174;SDS011;54110;45.778;4.826;2022-09-19T14:20:54;1.67;;;0.60;;
67174;SDS011;54110;45.778;4.826;2022-09-19T14:23:21;0.80;;;0.60;;
67174;SDS011;54110;45.778;4.826;2022-09-19T14:25:53;1.80;;;0.82;;
67174;SDS011;54110;45.778;4.826;2022-09-19T14:28:30;0.60;;;0.50;;
67174;SDS011;54110;45.778;4.826;2022-09-19T14:31:11;2.85;;;0.57;;
67174;SDS011;54110;45.778;4.826;2022-09-19T14:33:56;0.88;;;0.40;;
67174;SDS011;54110;45.778;4.826;2022-09-19T14:36:47;0.60;;;0.47;;
67174;SDS011;54110;45.778;4.826;2022-09-19T14:39:33;1.00;;;0.50;;
67174;SDS011;54110;45.778;4.826;2022-09-19T14:42:26;0.80;;;0.50;;
67174;SDS011;54110;45.778;4.826;2022-09-19T14:45:23;3.03;;;0.50;;
67174;SDS011;54110;45.778;4.826;2022-09-19T14:48:02;1.52;;;0.70;;
67174;SDS011;54110;45.778;4.826;2022-09-19T14:50:35;1.33;;;0.50;;
67174;SDS011;54110;45.778;4.826;2022-09-19T14:53:04;0.77;;;0.55;;
67174;SDS011;54110;45.778;4.826;2022-09-19T14:55:39;1.48;;;0.60;;
67174;SDS011;54110;45.778;4.826;2022-09-19T14:58:19;1.10;;;0.55;;
67174;SDS011;54110;45.778;4.826;2022-09-19T15:00:49;0.80;;;0.50;;
67174;SDS011;54110;45.778;4.826;2022-09-19T15:03:19;0.93;;;0.50;;
67174;SDS011;54110;45.778;4.826;2022-09-19T15:05:46;0.80;;;0.60;;
67174;SDS011;54110;45.778;4.826;2022-09-19T15:08:12;0.75;;;0.57;;